sensor_id;sensor_type;location;lat;lon;timestamp;P1;durP1;ratioP1;P2;durP2;ratioP2
25467;SDS011;13384;24.794;110.498;2022-07-10T00:00:11;7.68;;;5.78;;
25467;SDS011;13384;24.794;110.498;2022-07-10T00:02:44;8.05;;;6.25;;
25467;SDS011;13384;24.794;110.498;2022-07-10T00:05:16;6.80;;;5.10;;
25467;SDS011;13384;24.794;110.498;2022-07-10T00:07:49;10.07;;;6.93;;
25467;SDS011;13384;24.794;110.498;2022-07-10T00:10:21;11.57;;;6.60;;
25467;SDS011;13384;24.794;110.498;2022-07-10T00:12:54;11.65;;;6.28;;
25467;SDS011;13384;24.794;110.498;2022-07-10T00:15:26;10.32;;;6.47;;
25467;SDS011;13384;24.794;110.498;2022-07-10T00:17:57;9.15;;;6.85;;
25467;SDS011;13384;24.794;110.498;2022-07-10T00:20:28;7.05;;;5.22;;
25467;SDS011;13384;24.794;110.498;2022-07-10T00:22:59;10.23;;;5.80;;
25467;SDS011;13384;24.794;110.498;2022-07-10T00:25:30;8.43;;;5.97;;
25467;SDS011;13384;24.794;110.498;2022-07-10T00:28:02;8.63;;;6.50;;
25467;SDS011;13384;24.794;110.498;2022-07-10T00:30:33;11.27;;;6.72;;
25467;SDS011;13384;24.794;110.498;2022-07-10T00:33:05;8.80;;;6.55;;
25467;SDS011;13384;24.794;110.498;2022-07-10T00:35:36;8.73;;;6.22;;
25467;SDS011;13384;24.794;110.498;2022-07-10T00:38:08;10.73;;;6.50;;
25467;SDS011;13384;24.794;110.498;2022-07-10T00:40:39;9.20;;;5.80;;
25467;SDS011;13384;24.794;110.498;2022-07-10T00:43:11;9.27;;;6.40;;
25467;SDS011;13384;24.794;110.498;2022-07-10T00:45:42;9.43;;;6.90;;
25467;SDS011;13384;24.794;110.498;2022-07-10T00:48:13;12.68;;;6.15;;
25467;SDS011;13384;24.794;110.498;2022-07-10T00:51:03;9.07;;;5.88;;
25467;SDS011;13384;24.794;110.498;2022-07-10T00:53:35;10.88;;;6.15;;
25467;SDS011;13384;24.794;110.498;2022-07-10T00:56:06;9.65;;;6.30;;
25467;SDS011;13384;24.794;110.498;2022-07-10T00:58:37;8.50;;;6.60;;
25467;SDS011;13384;24.794;110.498;2022-07-10T01:01:09;10.18;;;6.13;;
25467;SDS011;13384;24.794;110.498;2022-07-10T01:03:41;9.07;;;6.97;;
25467;SDS011;13384;24.794;110.498;2022-07-10T01:06:16;9.50;;;6.38;;
25467;SDS011;13384;24.794;110.498;2022-07-10T01:08:47;10.25;;;6.15;;
25467;SDS011;13384;24.794;110.498;2022-07-10T01:11:19;9.20;;;6.18;;
25467;SDS011;13384;24.794;110.498;2022-07-10T01:13:51;8.95;;;6.82;;
25467;SDS011;13384;24.794;110.498;2022-07-10T01:16:22;9.13;;;6.95;;
25467;SDS011;13384;24.794;110.498;2022-07-10T01:18:54;12.63;;;8.43;;
25467;SDS011;13384;24.794;110.498;2022-07-10T01:21:26;9.95;;;7.75;;
25467;SDS011;13384;24.794;110.498;2022-07-10T01:23:59;18.92;;;8.98;;
25467;SDS011;13384;24.794;110.498;2022-07-10T01:26:34;16.35;;;10.25;;
25467;SDS011;13384;24.794;110.498;2022-07-10T01:29:07;66.10;;;46.60;;
25467;SDS011;13384;24.794;110.498;2022-07-10T01:31:40;45.03;;;33.33;;
25467;SDS011;13384;24.794;110.498;2022-07-10T01:34:12;19.42;;;14.80;;
25467;SDS011;13384;24.794;110.498;2022-07-10T01:36:43;11.60;;;8.77;;
25467;SDS011;13384;24.794;110.498;2022-07-10T01:39:15;7.25;;;5.20;;
25467;SDS011;13384;24.794;110.498;2022-07-10T01:41:47;15.55;;;8.18;;
25467;SDS011;13384;24.794;110.498;2022-07-10T01:44:18;9.25;;;7.32;;
25467;SDS011;13384;24.794;110.498;2022-07-10T01:46:50;12.20;;;8.10;;
25467;SDS011;13384;24.794;110.498;2022-07-10T01:49:21;11.60;;;9.43;;
25467;SDS011;13384;24.794;110.498;2022-07-10T01:51:52;8.68;;;7.25;;
25467;SDS011;13384;24.794;110.498;2022-07-10T01:54:23;7.60;;;6.40;;
25467;SDS011;13384;24.794;110.498;2022-07-10T01:56:55;9.52;;;7.38;;
25467;SDS011;13384;24.794;110.498;2022-07-10T01:59:26;10.35;;;8.35;;
25467;SDS011;13384;24.794;110.498;2022-07-10T02:01:57;7.05;;;6.35;;
25467;SDS011;13384;24.794;110.498;2022-07-10T02:04:29;7.40;;;6.70;;
25467;SDS011;13384;24.794;110.498;2022-07-10T02:07:13;10.85;;;7.38;;
25467;SDS011;13384;24.794;110.498;2022-07-10T02:09:47;8.95;;;7.80;;
25467;SDS011;13384;24.794;110.498;2022-07-10T02:12:18;11.32;;;8.30;;
25467;SDS011;13384;24.794;110.498;2022-07-10T02:14:50;9.50;;;7.47;;
25467;SDS011;13384;24.794;110.498;2022-07-10T02:17:22;5.85;;;4.90;;
25467;SDS011;13384;24.794;110.498;2022-07-10T02:19:53;4.93;;;4.43;;
25467;SDS011;13384;24.794;110.498;2022-07-10T02:22:25;5.40;;;4.82;;
25467;SDS011;13384;24.794;110.498;2022-07-10T02:24:56;6.65;;;5.18;;
25467;SDS011;13384;24.794;110.498;2022-07-10T02:27:27;7.47;;;5.22;;
25467;SDS011;13384;24.794;110.498;2022-07-10T02:29:58;6.05;;;4.55;;
25467;SDS011;13384;24.794;110.498;2022-07-10T02:32:43;12.48;;;11.27;;
25467;SDS011;13384;24.794;110.498;2022-07-10T02:35:15;6.57;;;5.72;;
25467;SDS011;13384;24.794;110.498;2022-07-10T02:37:46;14.75;;;11.85;;
25467;SDS011;13384;24.794;110.498;2022-07-10T02:40:18;7.93;;;7.07;;
25467;SDS011;13384;24.794;110.498;2022-07-10T02:42:49;22.98;;;20.52;;
25467;SDS011;13384;24.794;110.498;2022-07-10T02:45:22;9.80;;;7.63;;
25467;SDS011;13384;24.794;110.498;2022-07-10T02:47:53;14.77;;;13.27;;
25467;SDS011;13384;24.794;110.498;2022-07-10T02:50:25;7.53;;;4.85;;
25467;SDS011;13384;24.794;110.498;2022-07-10T02:53:09;4.82;;;4.28;;
25467;SDS011;13384;24.794;110.498;2022-07-10T02:55:41;6.90;;;5.95;;
25467;SDS011;13384;24.794;110.498;2022-07-10T02:58:12;15.63;;;13.23;;
25467;SDS011;13384;24.794;110.498;2022-07-10T03:00:45;6.20;;;5.60;;
25467;SDS011;13384;24.794;110.498;2022-07-10T03:03:16;6.80;;;5.05;;
25467;SDS011;13384;24.794;110.498;2022-07-10T03:05:47;10.55;;;9.55;;
25467;SDS011;13384;24.794;110.498;2022-07-10T03:08:19;5.65;;;5.10;;
25467;SDS011;13384;24.794;110.498;2022-07-10T03:11:03;5.93;;;5.38;;
25467;SDS011;13384;24.794;110.498;2022-07-10T03:13:35;7.50;;;6.80;;
25467;SDS011;13384;24.794;110.498;2022-07-10T03:16:06;11.10;;;9.15;;
25467;SDS011;13384;24.794;110.498;2022-07-10T03:18:37;9.48;;;7.28;;
25467;SDS011;13384;24.794;110.498;2022-07-10T03:21:10;12.63;;;5.45;;
25467;SDS011;13384;24.794;110.498;2022-07-10T03:23:41;6.63;;;5.10;;
25467;SDS011;13384;24.794;110.498;2022-07-10T03:26:12;5.20;;;4.70;;
25467;SDS011;13384;24.794;110.498;2022-07-10T03:28:43;6.63;;;4.53;;
25467;SDS011;13384;24.794;110.498;2022-07-10T03:31:15;5.50;;;4.32;;
25467;SDS011;13384;24.794;110.498;2022-07-10T03:33:46;8.77;;;4.63;;
25467;SDS011;13384;24.794;110.498;2022-07-10T03:36:19;6.53;;;3.97;;
25467;SDS011;13384;24.794;110.498;2022-07-10T03:38:51;5.15;;;4.40;;
25467;SDS011;13384;24.794;110.498;2022-07-10T03:41:22;4.68;;;4.07;;
25467;SDS011;13384;24.794;110.498;2022-07-10T03:43:53;6.13;;;4.50;;
25467;SDS011;13384;24.794;110.498;2022-07-10T03:46:24;5.65;;;4.05;;
25467;SDS011;13384;24.794;110.498;2022-07-10T03:48:57;6.53;;;4.28;;
25467;SDS011;13384;24.794;110.498;2022-07-10T03:51:29;6.22;;;4.30;;
25467;SDS011;13384;24.794;110.498;2022-07-10T03:54:01;6.85;;;3.83;;
25467;SDS011;13384;24.794;110.498;2022-07-10T03:56:32;5.90;;;4.22;;
25467;SDS011;13384;24.794;110.498;2022-07-10T03:59:21;6.53;;;4.05;;
25467;SDS011;13384;24.794;110.498;2022-07-10T04:01:53;6.72;;;4.35;;
25467;SDS011;13384;24.794;110.498;2022-07-10T04:04:24;5.43;;;4.30;;
25467;SDS011;13384;24.794;110.498;2022-07-10T04:06:55;6.38;;;4.20;;
25467;SDS011;13384;24.794;110.498;2022-07-10T04:10:00;4.47;;;4.07;;
25467;SDS011;13384;24.794;110.498;2022-07-10T04:12:33;5.63;;;4.47;;
25467;SDS011;13384;24.794;110.498;2022-07-10T04:15:05;4.57;;;3.83;;
25467;SDS011;13384;24.794;110.498;2022-07-10T04:17:36;3.60;;;3.30;;
25467;SDS011;13384;24.794;110.498;2022-07-10T04:20:08;3.78;;;3.38;;
25467;SDS011;13384;24.794;110.498;2022-07-10T04:22:40;5.38;;;4.00;;
25467;SDS011;13384;24.794;110.498;2022-07-10T04:25:12;3.60;;;3.25;;
25467;SDS011;13384;24.794;110.498;2022-07-10T04:27:44;3.58;;;2.85;;
25467;SDS011;13384;24.794;110.498;2022-07-10T04:30:15;3.35;;;2.97;;
25467;SDS011;13384;24.794;110.498;2022-07-10T04:32:46;4.35;;;3.22;;
25467;SDS011;13384;24.794;110.498;2022-07-10T04:35:18;4.53;;;4.07;;
25467;SDS011;13384;24.794;110.498;2022-07-10T04:37:49;4.07;;;3.00;;
25467;SDS011;13384;24.794;110.498;2022-07-10T04:40:33;10.57;;;3.67;;
25467;SDS011;13384;24.794;110.498;2022-07-10T04:43:05;3.35;;;2.83;;
25467;SDS011;13384;24.794;110.498;2022-07-10T04:45:36;3.60;;;2.90;;
25467;SDS011;13384;24.794;110.498;2022-07-10T04:48:07;4.47;;;4.07;;
25467;SDS011;13384;24.794;110.498;2022-07-10T04:50:38;4.28;;;3.10;;
25467;SDS011;13384;24.794;110.498;2022-07-10T04:53:10;6.40;;;4.65;;
25467;SDS011;13384;24.794;110.498;2022-07-10T04:55:42;4.00;;;2.85;;
25467;SDS011;13384;24.794;110.498;2022-07-10T04:58:13;4.22;;;3.83;;
25467;SDS011;13384;24.794;110.498;2022-07-10T05:00:44;4.97;;;3.85;;
25467;SDS011;13384;24.794;110.498;2022-07-10T05:03:16;6.53;;;3.60;;
25467;SDS011;13384;24.794;110.498;2022-07-10T05:05:47;3.67;;;3.20;;
25467;SDS011;13384;24.794;110.498;2022-07-10T05:08:19;3.47;;;3.10;;
25467;SDS011;13384;24.794;110.498;2022-07-10T05:10:50;3.67;;;2.75;;
25467;SDS011;13384;24.794;110.498;2022-07-10T05:13:23;3.57;;;3.27;;
25467;SDS011;13384;24.794;110.498;2022-07-10T05:15:54;7.00;;;3.03;;
25467;SDS011;13384;24.794;110.498;2022-07-10T05:18:26;3.97;;;3.20;;
25467;SDS011;13384;24.794;110.498;2022-07-10T05:20:57;4.03;;;2.85;;
25467;SDS011;13384;24.794;110.498;2022-07-10T05:23:29;3.15;;;2.60;;
25467;SDS011;13384;24.794;110.498;2022-07-10T05:26:00;3.67;;;2.80;;
25467;SDS011;13384;24.794;110.498;2022-07-10T05:28:32;11.48;;;3.38;;
25467;SDS011;13384;24.794;110.498;2022-07-10T05:31:16;3.42;;;2.88;;
25467;SDS011;13384;24.794;110.498;2022-07-10T05:33:47;4.05;;;3.13;;
25467;SDS011;13384;24.794;110.498;2022-07-10T05:36:18;4.97;;;3.35;;
25467;SDS011;13384;24.794;110.498;2022-07-10T05:38:50;4.28;;;3.17;;
25467;SDS011;13384;24.794;110.498;2022-07-10T05:41:21;2.72;;;2.50;;
25467;SDS011;13384;24.794;110.498;2022-07-10T05:43:52;3.17;;;2.75;;
25467;SDS011;13384;24.794;110.498;2022-07-10T05:46:24;4.55;;;2.70;;
25467;SDS011;13384;24.794;110.498;2022-07-10T05:48:58;3.03;;;2.72;;
25467;SDS011;13384;24.794;110.498;2022-07-10T05:51:29;3.03;;;2.70;;
25467;SDS011;13384;24.794;110.498;2022-07-10T05:54:11;4.43;;;3.60;;
25467;SDS011;13384;24.794;110.498;2022-07-10T05:56:43;3.38;;;3.08;;
25467;SDS011;13384;24.794;110.498;2022-07-10T05:59:14;3.42;;;2.97;;
25467;SDS011;13384;24.794;110.498;2022-07-10T06:01:46;3.33;;;2.70;;
25467;SDS011;13384;24.794;110.498;2022-07-10T06:04:17;2.97;;;2.65;;
25467;SDS011;13384;24.794;110.498;2022-07-10T06:06:49;2.80;;;2.42;;
25467;SDS011;13384;24.794;110.498;2022-07-10T06:09:20;3.45;;;2.78;;
25467;SDS011;13384;24.794;110.498;2022-07-10T06:11:52;2.70;;;2.50;;
25467;SDS011;13384;24.794;110.498;2022-07-10T06:14:23;3.33;;;2.65;;
25467;SDS011;13384;24.794;110.498;2022-07-10T06:16:56;2.70;;;2.28;;
25467;SDS011;13384;24.794;110.498;2022-07-10T06:19:28;3.00;;;2.70;;
25467;SDS011;13384;24.794;110.498;2022-07-10T06:22:00;3.75;;;3.40;;
25467;SDS011;13384;24.794;110.498;2022-07-10T06:24:51;3.55;;;2.92;;
25467;SDS011;13384;24.794;110.498;2022-07-10T06:27:24;2.75;;;2.55;;
25467;SDS011;13384;24.794;110.498;2022-07-10T06:29:57;2.90;;;2.50;;
25467;SDS011;13384;24.794;110.498;2022-07-10T06:32:29;7.33;;;2.63;;
25467;SDS011;13384;24.794;110.498;2022-07-10T06:35:00;3.10;;;2.70;;
25467;SDS011;13384;24.794;110.498;2022-07-10T06:37:33;2.72;;;2.47;;
25467;SDS011;13384;24.794;110.498;2022-07-10T06:40:05;5.40;;;4.15;;
25467;SDS011;13384;24.794;110.498;2022-07-10T06:42:40;3.38;;;2.60;;
25467;SDS011;13384;24.794;110.498;2022-07-10T06:45:12;6.20;;;2.73;;
25467;SDS011;13384;24.794;110.498;2022-07-10T06:47:45;4.22;;;2.58;;
25467;SDS011;13384;24.794;110.498;2022-07-10T06:50:26;4.18;;;2.90;;
25467;SDS011;13384;24.794;110.498;2022-07-10T06:53:03;4.47;;;2.90;;
25467;SDS011;13384;24.794;110.498;2022-07-10T06:55:35;3.78;;;3.40;;
25467;SDS011;13384;24.794;110.498;2022-07-10T06:58:07;4.40;;;3.60;;
25467;SDS011;13384;24.794;110.498;2022-07-10T07:00:39;4.18;;;3.78;;
25467;SDS011;13384;24.794;110.498;2022-07-10T07:03:10;3.78;;;3.20;;
25467;SDS011;13384;24.794;110.498;2022-07-10T07:06:01;3.53;;;2.97;;
25467;SDS011;13384;24.794;110.498;2022-07-10T07:08:32;4.15;;;3.47;;
25467;SDS011;13384;24.794;110.498;2022-07-10T07:13:56;5.90;;;3.30;;
25467;SDS011;13384;24.794;110.498;2022-07-10T07:16:28;3.08;;;2.83;;
25467;SDS011;13384;24.794;110.498;2022-07-10T07:19:12;3.47;;;3.17;;
25467;SDS011;13384;24.794;110.498;2022-07-10T07:22:00;3.80;;;2.95;;
25467;SDS011;13384;24.794;110.498;2022-07-10T07:24:56;4.82;;;2.80;;
25467;SDS011;13384;24.794;110.498;2022-07-10T07:27:27;3.03;;;2.72;;
25467;SDS011;13384;24.794;110.498;2022-07-10T07:30:01;3.17;;;2.35;;
25467;SDS011;13384;24.794;110.498;2022-07-10T07:32:33;2.33;;;2.13;;
25467;SDS011;13384;24.794;110.498;2022-07-10T07:35:06;3.05;;;2.75;;
25467;SDS011;13384;24.794;110.498;2022-07-10T07:37:41;2.53;;;2.33;;
25467;SDS011;13384;24.794;110.498;2022-07-10T07:40:15;2.85;;;2.60;;
25467;SDS011;13384;24.794;110.498;2022-07-10T07:42:53;4.03;;;3.72;;
25467;SDS011;13384;24.794;110.498;2022-07-10T07:45:25;3.30;;;3.00;;
25467;SDS011;13384;24.794;110.498;2022-07-10T07:47:58;2.92;;;2.67;;
25467;SDS011;13384;24.794;110.498;2022-07-10T07:50:32;2.40;;;2.20;;
25467;SDS011;13384;24.794;110.498;2022-07-10T07:53:04;3.08;;;2.78;;
25467;SDS011;13384;24.794;110.498;2022-07-10T07:55:36;3.13;;;2.83;;
25467;SDS011;13384;24.794;110.498;2022-07-10T07:58:09;2.57;;;2.37;;
25467;SDS011;13384;24.794;110.498;2022-07-10T08:00:40;2.63;;;2.20;;
25467;SDS011;13384;24.794;110.498;2022-07-10T08:03:13;2.88;;;2.67;;
25467;SDS011;13384;24.794;110.498;2022-07-10T08:05:45;4.93;;;2.80;;
25467;SDS011;13384;24.794;110.498;2022-07-10T08:08:16;3.78;;;2.40;;
25467;SDS011;13384;24.794;110.498;2022-07-10T08:11:08;3.15;;;2.47;;
25467;SDS011;13384;24.794;110.498;2022-07-10T08:13:40;3.35;;;2.33;;
25467;SDS011;13384;24.794;110.498;2022-07-10T08:16:12;2.22;;;2.08;;
25467;SDS011;13384;24.794;110.498;2022-07-10T08:18:44;5.30;;;2.90;;
25467;SDS011;13384;24.794;110.498;2022-07-10T08:21:15;2.25;;;2.05;;
25467;SDS011;13384;24.794;110.498;2022-07-10T08:23:47;5.55;;;2.75;;
25467;SDS011;13384;24.794;110.498;2022-07-10T08:26:20;2.97;;;2.53;;
25467;SDS011;13384;24.794;110.498;2022-07-10T08:28:51;2.47;;;2.17;;
25467;SDS011;13384;24.794;110.498;2022-07-10T08:31:25;4.10;;;2.83;;
25467;SDS011;13384;24.794;110.498;2022-07-10T08:34:16;3.38;;;2.97;;
25467;SDS011;13384;24.794;110.498;2022-07-10T08:36:48;3.13;;;2.40;;
25467;SDS011;13384;24.794;110.498;2022-07-10T08:39:20;2.75;;;2.35;;
25467;SDS011;13384;24.794;110.498;2022-07-10T08:41:52;3.17;;;2.50;;
25467;SDS011;13384;24.794;110.498;2022-07-10T08:46:56;4.15;;;3.00;;
25467;SDS011;13384;24.794;110.498;2022-07-10T08:49:47;2.90;;;2.70;;
25467;SDS011;13384;24.794;110.498;2022-07-10T08:52:23;3.53;;;2.58;;
25467;SDS011;13384;24.794;110.498;2022-07-10T08:54:57;3.47;;;3.17;;
25467;SDS011;13384;24.794;110.498;2022-07-10T08:57:29;3.13;;;2.92;;
25467;SDS011;13384;24.794;110.498;2022-07-10T09:00:01;3.03;;;2.72;;
25467;SDS011;13384;24.794;110.498;2022-07-10T09:02:32;4.20;;;2.45;;
25467;SDS011;13384;24.794;110.498;2022-07-10T09:05:04;4.80;;;3.28;;
25467;SDS011;13384;24.794;110.498;2022-07-10T09:07:40;3.22;;;2.53;;
25467;SDS011;13384;24.794;110.498;2022-07-10T09:10:13;3.33;;;3.03;;
25467;SDS011;13384;24.794;110.498;2022-07-10T09:12:51;3.90;;;3.10;;
25467;SDS011;13384;24.794;110.498;2022-07-10T09:15:28;2.83;;;2.58;;
25467;SDS011;13384;24.794;110.498;2022-07-10T09:18:05;2.90;;;2.58;;
25467;SDS011;13384;24.794;110.498;2022-07-10T09:20:38;3.65;;;3.10;;
25467;SDS011;13384;24.794;110.498;2022-07-10T09:25:54;2.97;;;2.65;;
25467;SDS011;13384;24.794;110.498;2022-07-10T09:28:27;3.97;;;2.72;;
25467;SDS011;13384;24.794;110.498;2022-07-10T09:30:58;4.55;;;3.03;;
25467;SDS011;13384;24.794;110.498;2022-07-10T09:33:31;3.28;;;2.97;;
25467;SDS011;13384;24.794;110.498;2022-07-10T09:36:07;3.38;;;2.40;;
25467;SDS011;13384;24.794;110.498;2022-07-10T09:38:48;4.45;;;2.72;;
25467;SDS011;13384;24.794;110.498;2022-07-10T09:41:25;3.28;;;2.50;;
25467;SDS011;13384;24.794;110.498;2022-07-10T09:44:01;3.13;;;2.83;;
25467;SDS011;13384;24.794;110.498;2022-07-10T09:46:46;4.57;;;3.05;;
25467;SDS011;13384;24.794;110.498;2022-07-10T09:49:18;3.00;;;2.75;;
25467;SDS011;13384;24.794;110.498;2022-07-10T09:51:49;4.25;;;3.00;;
25467;SDS011;13384;24.794;110.498;2022-07-10T09:54:22;3.45;;;3.17;;
25467;SDS011;13384;24.794;110.498;2022-07-10T09:56:55;3.70;;;2.95;;
25467;SDS011;13384;24.794;110.498;2022-07-10T09:59:27;3.38;;;2.80;;
25467;SDS011;13384;24.794;110.498;2022-07-10T10:02:02;3.53;;;2.58;;
25467;SDS011;13384;24.794;110.498;2022-07-10T10:04:55;2.90;;;2.70;;
25467;SDS011;13384;24.794;110.498;2022-07-10T10:07:29;3.72;;;3.13;;
25467;SDS011;13384;24.794;110.498;2022-07-10T10:12:43;4.57;;;3.15;;
25467;SDS011;13384;24.794;110.498;2022-07-10T10:15:25;3.10;;;2.90;;
25467;SDS011;13384;24.794;110.498;2022-07-10T10:17:58;3.60;;;2.85;;
25467;SDS011;13384;24.794;110.498;2022-07-10T10:20:32;3.53;;;3.10;;
25467;SDS011;13384;24.794;110.498;2022-07-10T10:23:10;4.10;;;2.40;;
25467;SDS011;13384;24.794;110.498;2022-07-10T10:25:56;4.00;;;3.10;;
25467;SDS011;13384;24.794;110.498;2022-07-10T10:28:27;4.13;;;2.88;;
25467;SDS011;13384;24.794;110.498;2022-07-10T10:30:59;4.10;;;3.15;;
25467;SDS011;13384;24.794;110.498;2022-07-10T10:33:47;3.28;;;2.97;;
25467;SDS011;13384;24.794;110.498;2022-07-10T10:39:16;5.23;;;3.00;;
25467;SDS011;13384;24.794;110.498;2022-07-10T10:41:54;3.60;;;2.97;;
25467;SDS011;13384;24.794;110.498;2022-07-10T10:44:26;5.07;;;3.15;;
25467;SDS011;13384;24.794;110.498;2022-07-10T10:47:04;4.53;;;3.15;;
25467;SDS011;13384;24.794;110.498;2022-07-10T10:49:56;3.92;;;3.15;;
25467;SDS011;13384;24.794;110.498;2022-07-10T10:59:47;4.85;;;3.42;;
25467;SDS011;13384;24.794;110.498;2022-07-10T11:02:41;31.60;;;14.65;;
25467;SDS011;13384;24.794;110.498;2022-07-10T11:37:51;10.48;;;6.18;;
25467;SDS011;13384;24.794;110.498;2022-07-10T11:43:17;15.65;;;9.60;;
25467;SDS011;13384;24.794;110.498;2022-07-10T11:45:53;12.75;;;6.57;;
25467;SDS011;13384;24.794;110.498;2022-07-10T11:51:37;8.23;;;5.80;;
25467;SDS011;13384;24.794;110.498;2022-07-10T12:00:22;7.75;;;5.38;;
25467;SDS011;13384;24.794;110.498;2022-07-10T12:03:20;7.93;;;4.68;;
25467;SDS011;13384;24.794;110.498;2022-07-10T12:06:24;7.97;;;4.60;;
25467;SDS011;13384;24.794;110.498;2022-07-10T12:15:35;7.70;;;4.25;;
25467;SDS011;13384;24.794;110.498;2022-07-10T12:30:09;7.47;;;5.25;;
25467;SDS011;13384;24.794;110.498;2022-07-10T12:32:38;14.88;;;6.97;;
25467;SDS011;13384;24.794;110.498;2022-07-10T12:35:08;15.68;;;7.15;;
25467;SDS011;13384;24.794;110.498;2022-07-10T12:44:45;8.10;;;4.80;;
25467;SDS011;13384;24.794;110.498;2022-07-10T12:47:45;9.77;;;5.60;;
25467;SDS011;13384;24.794;110.498;2022-07-10T12:50:22;7.35;;;5.07;;
25467;SDS011;13384;24.794;110.498;2022-07-10T12:56:37;8.77;;;4.72;;
25467;SDS011;13384;24.794;110.498;2022-07-10T12:59:28;8.60;;;5.53;;
25467;SDS011;13384;24.794;110.498;2022-07-10T13:05:40;8.93;;;6.20;;
25467;SDS011;13384;24.794;110.498;2022-07-10T13:21:20;9.27;;;6.22;;
25467;SDS011;13384;24.794;110.498;2022-07-10T13:24:15;9.75;;;6.55;;
25467;SDS011;13384;24.794;110.498;2022-07-10T13:27:07;11.05;;;6.28;;
25467;SDS011;13384;24.794;110.498;2022-07-10T13:32:27;9.43;;;6.35;;
25467;SDS011;13384;24.794;110.498;2022-07-10T13:35:06;12.38;;;5.50;;
25467;SDS011;13384;24.794;110.498;2022-07-10T13:38:02;9.60;;;6.03;;
25467;SDS011;13384;24.794;110.498;2022-07-10T14:03:29;12.07;;;7.13;;
25467;SDS011;13384;24.794;110.498;2022-07-10T14:06:24;10.93;;;8.05;;
25467;SDS011;13384;24.794;110.498;2022-07-10T14:09:31;11.00;;;7.13;;
25467;SDS011;13384;24.794;110.498;2022-07-10T14:21:11;12.93;;;6.75;;
25467;SDS011;13384;24.794;110.498;2022-07-10T14:26:57;12.55;;;7.20;;
25467;SDS011;13384;24.794;110.498;2022-07-10T14:29:39;13.10;;;7.72;;
25467;SDS011;13384;24.794;110.498;2022-07-10T14:32:40;11.23;;;7.18;;
25467;SDS011;13384;24.794;110.498;2022-07-10T14:35:11;10.63;;;7.15;;
25467;SDS011;13384;24.794;110.498;2022-07-10T14:41:24;15.02;;;6.97;;
25467;SDS011;13384;24.794;110.498;2022-07-10T14:47:43;12.05;;;8.77;;
25467;SDS011;13384;24.794;110.498;2022-07-10T14:50:35;8.98;;;6.72;;
25467;SDS011;13384;24.794;110.498;2022-07-10T14:53:04;13.45;;;7.32;;
25467;SDS011;13384;24.794;110.498;2022-07-10T14:55:37;12.13;;;7.15;;
25467;SDS011;13384;24.794;110.498;2022-07-10T15:16:43;7.00;;;6.00;;
25467;SDS011;13384;24.794;110.498;2022-07-10T15:19:59;10.18;;;6.75;;
25467;SDS011;13384;24.794;110.498;2022-07-10T15:34:40;7.65;;;4.80;;
25467;SDS011;13384;24.794;110.498;2022-07-10T15:44:06;5.43;;;4.82;;
25467;SDS011;13384;24.794;110.498;2022-07-10T15:49:57;7.93;;;5.32;;
25467;SDS011;13384;24.794;110.498;2022-07-10T15:53:04;7.07;;;5.38;;
25467;SDS011;13384;24.794;110.498;2022-07-10T15:56:12;6.18;;;4.38;;
25467;SDS011;13384;24.794;110.498;2022-07-10T15:58:42;8.90;;;5.35;;
25467;SDS011;13384;24.794;110.498;2022-07-10T16:01:12;7.22;;;5.25;;
25467;SDS011;13384;24.794;110.498;2022-07-10T16:04:04;7.22;;;5.32;;
25467;SDS011;13384;24.794;110.498;2022-07-10T16:10:19;6.18;;;5.05;;
25467;SDS011;13384;24.794;110.498;2022-07-10T16:16:52;7.15;;;4.93;;
25467;SDS011;13384;24.794;110.498;2022-07-10T16:26:03;5.88;;;4.68;;
25467;SDS011;13384;24.794;110.498;2022-07-10T16:28:42;5.38;;;4.68;;
25467;SDS011;13384;24.794;110.498;2022-07-10T16:34:35;6.53;;;4.82;;
25467;SDS011;13384;24.794;110.498;2022-07-10T16:39:50;6.78;;;5.32;;
25467;SDS011;13384;24.794;110.498;2022-07-10T16:42:47;5.55;;;4.53;;
25467;SDS011;13384;24.794;110.498;2022-07-10T16:46:00;7.05;;;5.43;;
25467;SDS011;13384;24.794;110.498;2022-07-10T16:55:08;5.90;;;4.72;;
25467;SDS011;13384;24.794;110.498;2022-07-10T17:02:05;6.35;;;4.05;;
25467;SDS011;13384;24.794;110.498;2022-07-10T17:04:36;7.43;;;4.93;;
25467;SDS011;13384;24.794;110.498;2022-07-10T17:13:38;5.28;;;4.65;;
25467;SDS011;13384;24.794;110.498;2022-07-10T17:16:27;5.80;;;4.90;;
25467;SDS011;13384;24.794;110.498;2022-07-10T17:31:35;4.97;;;4.28;;
25467;SDS011;13384;24.794;110.498;2022-07-10T17:34:07;5.28;;;4.68;;
25467;SDS011;13384;24.794;110.498;2022-07-10T17:40:17;9.88;;;5.28;;
25467;SDS011;13384;24.794;110.498;2022-07-10T17:45:58;6.20;;;4.85;;
25467;SDS011;13384;24.794;110.498;2022-07-10T17:51:26;6.80;;;4.97;;
25467;SDS011;13384;24.794;110.498;2022-07-10T17:57:09;7.53;;;5.13;;
25467;SDS011;13384;24.794;110.498;2022-07-10T18:00:21;6.38;;;5.10;;
25467;SDS011;13384;24.794;110.498;2022-07-10T18:02:53;6.68;;;4.88;;
25467;SDS011;13384;24.794;110.498;2022-07-10T18:05:42;6.93;;;4.55;;
25467;SDS011;13384;24.794;110.498;2022-07-10T18:08:37;5.20;;;4.63;;
25467;SDS011;13384;24.794;110.498;2022-07-10T18:18:05;7.10;;;5.28;;
25467;SDS011;13384;24.794;110.498;2022-07-10T18:26:52;5.22;;;4.63;;
25467;SDS011;13384;24.794;110.498;2022-07-10T18:32:28;5.55;;;4.88;;
25467;SDS011;13384;24.794;110.498;2022-07-10T18:35:53;5.18;;;4.57;;
25467;SDS011;13384;24.794;110.498;2022-07-10T18:45:25;5.90;;;4.90;;
25467;SDS011;13384;24.794;110.498;2022-07-10T18:57:28;6.68;;;5.25;;
25467;SDS011;13384;24.794;110.498;2022-07-10T19:03:12;5.10;;;4.50;;
25467;SDS011;13384;24.794;110.498;2022-07-10T19:06:31;7.32;;;4.82;;
25467;SDS011;13384;24.794;110.498;2022-07-10T19:09:41;5.20;;;4.70;;
25467;SDS011;13384;24.794;110.498;2022-07-10T19:15:30;8.65;;;4.82;;
25467;SDS011;13384;24.794;110.498;2022-07-10T19:18:04;6.35;;;4.90;;
25467;SDS011;13384;24.794;110.498;2022-07-10T19:21:10;6.35;;;4.88;;
25467;SDS011;13384;24.794;110.498;2022-07-10T19:26:57;6.72;;;4.70;;
25467;SDS011;13384;24.794;110.498;2022-07-10T19:33:24;6.00;;;5.00;;
25467;SDS011;13384;24.794;110.498;2022-07-10T19:46:01;7.25;;;5.38;;
25467;SDS011;13384;24.794;110.498;2022-07-10T19:51:39;11.05;;;5.15;;
25467;SDS011;13384;24.794;110.498;2022-07-10T20:04:24;5.32;;;4.82;;
25467;SDS011;13384;24.794;110.498;2022-07-10T20:19:04;7.25;;;5.55;;
25467;SDS011;13384;24.794;110.498;2022-07-10T20:31:21;7.03;;;4.78;;
25467;SDS011;13384;24.794;110.498;2022-07-10T20:42:46;8.45;;;5.18;;
25467;SDS011;13384;24.794;110.498;2022-07-10T20:45:17;9.05;;;5.40;;
25467;SDS011;13384;24.794;110.498;2022-07-10T20:57:17;7.00;;;4.63;;
25467;SDS011;13384;24.794;110.498;2022-07-10T21:02:49;6.65;;;4.60;;
25467;SDS011;13384;24.794;110.498;2022-07-10T21:05:20;5.03;;;4.53;;
25467;SDS011;13384;24.794;110.498;2022-07-10T21:07:51;13.45;;;5.05;;
25467;SDS011;13384;24.794;110.498;2022-07-10T21:19:17;7.03;;;5.72;;
25467;SDS011;13384;24.794;110.498;2022-07-10T21:21:46;8.00;;;6.20;;
25467;SDS011;13384;24.794;110.498;2022-07-10T21:27:40;8.68;;;5.47;;
25467;SDS011;13384;24.794;110.498;2022-07-10T21:49:12;6.47;;;5.30;;
25467;SDS011;13384;24.794;110.498;2022-07-10T21:52:04;12.93;;;6.40;;